sensor_id;sensor_type;location;lat;lon;timestamp;temperature;humidity
5554;DHT22;2800;49.528;8.666;2024-03-23T00:55:52;13.20;99.90
5554;DHT22;2800;49.528;8.666;2024-03-23T00:58:18;13.20;99.90
5554;DHT22;2800;49.528;8.666;2024-03-23T01:00:43;13.20;99.90
5554;DHT22;2800;49.528;8.666;2024-03-23T01:03:09;13.30;99.90
5554;DHT22;2800;49.528;8.666;2024-03-23T01:05:34;13.30;99.90
5554;DHT22;2800;49.528;8.666;2024-03-23T01:08:00;13.30;99.90
5554;DHT22;2800;49.528;8.666;2024-03-23T01:10:25;13.40;99.90
5554;DHT22;2800;49.528;8.666;2024-03-23T01:12:51;13.50;99.90
5554;DHT22;2800;49.528;8.666;2024-03-23T01:15:16;13.50;99.90
5554;DHT22;2800;49.528;8.666;2024-03-23T01:17:42;13.50;99.90
5554;DHT22;2800;49.528;8.666;2024-03-23T01:20:07;13.50;99.90
5554;DHT22;2800;49.528;8.666;2024-03-23T01:22:33;13.40;99.90
5554;DHT22;2800;49.528;8.666;2024-03-23T01:24:58;13.40;99.90
5554;DHT22;2800;49.528;8.666;2024-03-23T01:27:24;13.30;99.90
5554;DHT22;2800;49.528;8.666;2024-03-23T01:29:50;13.20;99.90
5554;DHT22;2800;49.528;8.666;2024-03-23T01:32:17;13.10;99.90
5554;DHT22;2800;49.528;8.666;2024-03-23T01:34:43;13.10;99.90
5554;DHT22;2800;49.528;8.666;2024-03-23T01:37:09;13.20;99.90
5554;DHT22;2800;49.528;8.666;2024-03-23T01:39:34;13.20;99.90
5554;DHT22;2800;49.528;8.666;2024-03-23T01:42:00;13.20;99.90
5554;DHT22;2800;49.528;8.666;2024-03-23T01:44:25;13.20;99.90
5554;DHT22;2800;49.528;8.666;2024-03-23T01:46:51;13.30;99.90
5554;DHT22;2800;49.528;8.666;2024-03-23T01:49:17;13.30;99.90
5554;DHT22;2800;49.528;8.666;2024-03-23T01:51:43;13.40;99.90
5554;DHT22;2800;49.528;8.666;2024-03-23T01:54:09;15.10;99.90
5554;DHT22;2800;49.528;8.666;2024-03-23T01:56:36;13.40;99.90
5554;DHT22;2800;49.528;8.666;2024-03-23T01:59:11;13.40;99.90
5554;DHT22;2800;49.528;8.666;2024-03-23T02:01:37;13.50;99.90
5554;DHT22;2800;49.528;8.666;2024-03-23T02:04:02;13.60;99.90
5554;DHT22;2800;49.528;8.666;2024-03-23T02:06:28;13.60;99.90
5554;DHT22;2800;49.528;8.666;2024-03-23T02:08:57;13.60;99.90
5554;DHT22;2800;49.528;8.666;2024-03-23T02:11:23;13.70;99.90
5554;DHT22;2800;49.528;8.666;2024-03-23T02:13:48;13.60;99.90
5554;DHT22;2800;49.528;8.666;2024-03-23T02:16:14;13.50;99.90
5554;DHT22;2800;49.528;8.666;2024-03-23T02:18:39;13.50;99.90
5554;DHT22;2800;49.528;8.666;2024-03-23T02:21:05;13.50;99.90
5554;DHT22;2800;49.528;8.666;2024-03-23T02:23:30;13.40;99.90
5554;DHT22;2800;49.528;8.666;2024-03-23T02:25:56;13.40;99.90
5554;DHT22;2800;49.528;8.666;2024-03-23T02:28:22;13.30;99.90
5554;DHT22;2800;49.528;8.666;2024-03-23T02:30:51;13.20;99.90
5554;DHT22;2800;49.528;8.666;2024-03-23T02:33:17;13.20;99.90
5554;DHT22;2800;49.528;8.666;2024-03-23T02:35:45;13.10;99.90
5554;DHT22;2800;49.528;8.666;2024-03-23T02:38:11;13.00;99.90
5554;DHT22;2800;49.528;8.666;2024-03-23T02:40:36;13.00;99.90
5554;DHT22;2800;49.528;8.666;2024-03-23T02:43:03;12.80;99.90
5554;DHT22;2800;49.528;8.666;2024-03-23T02:45:29;12.70;99.90
5554;DHT22;2800;49.528;8.666;2024-03-23T02:47:54;12.70;99.90
5554;DHT22;2800;49.528;8.666;2024-03-23T02:50:20;12.60;99.90
5554;DHT22;2800;49.528;8.666;2024-03-23T02:52:46;12.50;99.90
5554;DHT22;2800;49.528;8.666;2024-03-23T02:55:12;12.40;99.90
5554;DHT22;2800;49.528;8.666;2024-03-23T02:57:37;12.20;99.90
5554;DHT22;2800;49.528;8.666;2024-03-23T03:00:04;12.20;99.90
5554;DHT22;2800;49.528;8.666;2024-03-23T03:02:30;12.10;99.90
5554;DHT22;2800;49.528;8.666;2024-03-23T03:04:56;12.10;99.90
5554;DHT22;2800;49.528;8.666;2024-03-23T03:07:21;12.10;99.90
5554;DHT22;2800;49.528;8.666;2024-03-23T03:09:46;12.10;99.90
5554;DHT22;2800;49.528;8.666;2024-03-23T03:12:12;12.00;99.90
5554;DHT22;2800;49.528;8.666;2024-03-23T03:14:37;12.00;99.90
5554;DHT22;2800;49.528;8.666;2024-03-23T03:17:03;12.00;99.90
5554;DHT22;2800;49.528;8.666;2024-03-23T03:19:29;11.90;99.90
5554;DHT22;2800;49.528;8.666;2024-03-23T03:21:55;11.90;99.90
5554;DHT22;2800;49.528;8.666;2024-03-23T03:24:21;11.90;99.90
5554;DHT22;2800;49.528;8.666;2024-03-23T03:26:46;11.90;99.90
5554;DHT22;2800;49.528;8.666;2024-03-23T03:29:12;11.90;99.90
5554;DHT22;2800;49.528;8.666;2024-03-23T03:31:39;11.90;99.90
5554;DHT22;2800;49.528;8.666;2024-03-23T03:34:04;11.80;99.90
5554;DHT22;2800;49.528;8.666;2024-03-23T03:36:30;11.80;99.90
5554;DHT22;2800;49.528;8.666;2024-03-23T03:38:55;11.80;99.90
5554;DHT22;2800;49.528;8.666;2024-03-23T03:41:21;11.80;99.90
5554;DHT22;2800;49.528;8.666;2024-03-23T03:43:46;11.80;99.90
5554;DHT22;2800;49.528;8.666;2024-03-23T03:46:12;11.80;99.90
5554;DHT22;2800;49.528;8.666;2024-03-23T03:48:37;11.70;99.90
5554;DHT22;2800;49.528;8.666;2024-03-23T03:51:03;11.70;99.90
5554;DHT22;2800;49.528;8.666;2024-03-23T03:53:29;11.70;99.90
5554;DHT22;2800;49.528;8.666;2024-03-23T03:55:55;11.70;99.90
5554;DHT22;2800;49.528;8.666;2024-03-23T03:58:21;11.70;99.90
5554;DHT22;2800;49.528;8.666;2024-03-23T04:00:46;11.70;99.90
5554;DHT22;2800;49.528;8.666;2024-03-23T04:03:12;11.70;99.90
5554;DHT22;2800;49.528;8.666;2024-03-23T04:05:37;11.70;99.90
5554;DHT22;2800;49.528;8.666;2024-03-23T04:08:03;11.60;99.90
5554;DHT22;2800;49.528;8.666;2024-03-23T04:10:30;11.60;99.90
5554;DHT22;2800;49.528;8.666;2024-03-23T04:12:55;11.60;99.90
5554;DHT22;2800;49.528;8.666;2024-03-23T04:15:21;11.50;99.90
5554;DHT22;2800;49.528;8.666;2024-03-23T04:17:47;11.50;99.90
5554;DHT22;2800;49.528;8.666;2024-03-23T04:20:13;11.60;99.90
5554;DHT22;2800;49.528;8.666;2024-03-23T04:22:44;11.60;99.90
5554;DHT22;2800;49.528;8.666;2024-03-23T04:25:10;11.60;99.90
5554;DHT22;2800;49.528;8.666;2024-03-23T04:27:39;11.60;99.90
5554;DHT22;2800;49.528;8.666;2024-03-23T04:30:05;11.60;99.90
5554;DHT22;2800;49.528;8.666;2024-03-23T04:32:36;11.60;99.90
5554;DHT22;2800;49.528;8.666;2024-03-23T04:35:01;11.60;99.90
5554;DHT22;2800;49.528;8.666;2024-03-23T04:37:28;11.60;99.90
5554;DHT22;2800;49.528;8.666;2024-03-23T04:39:54;11.60;99.90
5554;DHT22;2800;49.528;8.666;2024-03-23T04:42:19;11.60;99.90
5554;DHT22;2800;49.528;8.666;2024-03-23T04:44:45;11.50;99.90
5554;DHT22;2800;49.528;8.666;2024-03-23T04:47:10;11.60;99.90
5554;DHT22;2800;49.528;8.666;2024-03-23T04:49:36;11.60;99.90
5554;DHT22;2800;49.528;8.666;2024-03-23T04:52:03;11.60;99.90
5554;DHT22;2800;49.528;8.666;2024-03-23T04:54:29;11.60;99.90
5554;DHT22;2800;49.528;8.666;2024-03-23T04:56:55;11.50;99.90
5554;DHT22;2800;49.528;8.666;2024-03-23T04:59:21;11.50;99.90
5554;DHT22;2800;49.528;8.666;2024-03-23T05:01:46;11.50;99.90
5554;DHT22;2800;49.528;8.666;2024-03-23T05:04:12;11.50;99.90
5554;DHT22;2800;49.528;8.666;2024-03-23T05:06:38;11.50;99.90
5554;DHT22;2800;49.528;8.666;2024-03-23T05:09:03;11.50;99.90
5554;DHT22;2800;49.528;8.666;2024-03-23T05:11:33;11.50;99.90
5554;DHT22;2800;49.528;8.666;2024-03-23T05:13:59;11.50;99.90
5554;DHT22;2800;49.528;8.666;2024-03-23T05:16:25;11.40;99.90
5554;DHT22;2800;49.528;8.666;2024-03-23T05:18:51;11.40;99.90
5554;DHT22;2800;49.528;8.666;2024-03-23T05:21:17;11.30;99.90
5554;DHT22;2800;49.528;8.666;2024-03-23T05:23:42;11.30;99.90
5554;DHT22;2800;49.528;8.666;2024-03-23T05:26:09;11.20;99.90
5554;DHT22;2800;49.528;8.666;2024-03-23T05:28:35;11.00;99.90
5554;DHT22;2800;49.528;8.666;2024-03-23T05:31:00;10.70;99.90
5554;DHT22;2800;49.528;8.666;2024-03-23T05:33:26;10.10;99.90
5554;DHT22;2800;49.528;8.666;2024-03-23T05:35:58;9.60;99.90
5554;DHT22;2800;49.528;8.666;2024-03-23T05:38:24;9.30;99.90
5554;DHT22;2800;49.528;8.666;2024-03-23T05:40:59;9.10;99.90
5554;DHT22;2800;49.528;8.666;2024-03-23T05:43:25;9.00;99.90
5554;DHT22;2800;49.528;8.666;2024-03-23T05:45:58;8.80;99.90
5554;DHT22;2800;49.528;8.666;2024-03-23T05:48:24;8.80;99.90
5554;DHT22;2800;49.528;8.666;2024-03-23T05:50:50;8.70;99.90
5554;DHT22;2800;49.528;8.666;2024-03-23T05:53:17;8.60;99.90
5554;DHT22;2800;49.528;8.666;2024-03-23T05:55:42;8.50;99.90
5554;DHT22;2800;49.528;8.666;2024-03-23T05:58:08;8.50;99.90
5554;DHT22;2800;49.528;8.666;2024-03-23T06:00:34;8.50;99.90
5554;DHT22;2800;49.528;8.666;2024-03-23T06:02:59;8.50;99.90
5554;DHT22;2800;49.528;8.666;2024-03-23T06:05:25;8.50;99.90
5554;DHT22;2800;49.528;8.666;2024-03-23T06:07:50;8.40;99.90
5554;DHT22;2800;49.528;8.666;2024-03-23T06:10:16;8.40;99.90
5554;DHT22;2800;49.528;8.666;2024-03-23T06:12:41;8.40;99.90
5554;DHT22;2800;49.528;8.666;2024-03-23T06:15:08;8.50;99.90
5554;DHT22;2800;49.528;8.666;2024-03-23T06:17:36;8.40;99.90
5554;DHT22;2800;49.528;8.666;2024-03-23T06:20:02;8.30;99.90
5554;DHT22;2800;49.528;8.666;2024-03-23T06:22:27;8.40;99.90
5554;DHT22;2800;49.528;8.666;2024-03-23T06:24:53;8.40;99.90
5554;DHT22;2800;49.528;8.666;2024-03-23T06:27:18;8.40;99.90
5554;DHT22;2800;49.528;8.666;2024-03-23T06:29:44;8.40;99.90
5554;DHT22;2800;49.528;8.666;2024-03-23T06:32:09;8.30;99.90
5554;DHT22;2800;49.528;8.666;2024-03-23T06:34:35;8.30;99.90
5554;DHT22;2800;49.528;8.666;2024-03-23T06:37:00;8.30;99.90
5554;DHT22;2800;49.528;8.666;2024-03-23T06:39:26;8.40;99.90
5554;DHT22;2800;49.528;8.666;2024-03-23T06:41:53;8.40;99.90
5554;DHT22;2800;49.528;8.666;2024-03-23T06:44:19;8.40;99.90
5554;DHT22;2800;49.528;8.666;2024-03-23T06:46:45;8.40;99.90
5554;DHT22;2800;49.528;8.666;2024-03-23T06:49:11;8.40;99.90
5554;DHT22;2800;49.528;8.666;2024-03-23T06:51:37;8.40;99.90
5554;DHT22;2800;49.528;8.666;2024-03-23T06:54:03;8.40;99.90
5554;DHT22;2800;49.528;8.666;2024-03-23T06:56:29;8.40;99.90
5554;DHT22;2800;49.528;8.666;2024-03-23T06:58:55;8.40;99.90
5554;DHT22;2800;49.528;8.666;2024-03-23T07:01:21;8.40;99.90
5554;DHT22;2800;49.528;8.666;2024-03-23T07:03:46;8.40;99.90
5554;DHT22;2800;49.528;8.666;2024-03-23T07:06:12;8.40;99.90
5554;DHT22;2800;49.528;8.666;2024-03-23T07:08:37;8.50;99.90
5554;DHT22;2800;49.528;8.666;2024-03-23T07:11:03;8.50;99.90
5554;DHT22;2800;49.528;8.666;2024-03-23T07:13:30;8.40;99.90
5554;DHT22;2800;49.528;8.666;2024-03-23T07:15:56;8.50;99.90
5554;DHT22;2800;49.528;8.666;2024-03-23T07:18:22;8.40;99.90
5554;DHT22;2800;49.528;8.666;2024-03-23T07:20:54;8.40;99.90
5554;DHT22;2800;49.528;8.666;2024-03-23T07:23:22;8.30;99.90
5554;DHT22;2800;49.528;8.666;2024-03-23T07:25:57;8.30;99.90
5554;DHT22;2800;49.528;8.666;2024-03-23T07:28:23;8.30;99.90
5554;DHT22;2800;49.528;8.666;2024-03-23T07:30:49;8.30;99.90
5554;DHT22;2800;49.528;8.666;2024-03-23T07:33:23;8.30;99.90
5554;DHT22;2800;49.528;8.666;2024-03-23T07:35:49;8.30;99.90
5554;DHT22;2800;49.528;8.666;2024-03-23T07:38:14;8.30;99.90
5554;DHT22;2800;49.528;8.666;2024-03-23T07:40:40;8.30;99.90
5554;DHT22;2800;49.528;8.666;2024-03-23T07:43:05;8.30;99.90
5554;DHT22;2800;49.528;8.666;2024-03-23T07:45:31;8.30;99.90
5554;DHT22;2800;49.528;8.666;2024-03-23T07:47:56;8.30;99.90
5554;DHT22;2800;49.528;8.666;2024-03-23T07:50:22;8.20;99.90
5554;DHT22;2800;49.528;8.666;2024-03-23T07:52:47;8.10;99.90
5554;DHT22;2800;49.528;8.666;2024-03-23T07:55:13;8.10;99.90
5554;DHT22;2800;49.528;8.666;2024-03-23T07:57:38;8.00;99.90
5554;DHT22;2800;49.528;8.666;2024-03-23T08:00:04;8.10;99.90
5554;DHT22;2800;49.528;8.666;2024-03-23T08:02:30;8.10;99.90
5554;DHT22;2800;49.528;8.666;2024-03-23T08:04:55;8.10;99.90
5554;DHT22;2800;49.528;8.666;2024-03-23T08:07:21;8.00;99.90
5554;DHT22;2800;49.528;8.666;2024-03-23T08:09:46;8.10;99.90
5554;DHT22;2800;49.528;8.666;2024-03-23T08:12:12;8.20;99.90
5554;DHT22;2800;49.528;8.666;2024-03-23T08:14:37;8.30;99.90
5554;DHT22;2800;49.528;8.666;2024-03-23T08:17:02;8.50;99.90
5554;DHT22;2800;49.528;8.666;2024-03-23T08:19:28;8.60;99.90
5554;DHT22;2800;49.528;8.666;2024-03-23T08:21:53;8.60;99.90
5554;DHT22;2800;49.528;8.666;2024-03-23T08:24:19;8.70;99.90
5554;DHT22;2800;49.528;8.666;2024-03-23T08:26:45;8.60;99.90
5554;DHT22;2800;49.528;8.666;2024-03-23T08:29:10;8.50;99.90
5554;DHT22;2800;49.528;8.666;2024-03-23T08:31:36;8.50;99.90
5554;DHT22;2800;49.528;8.666;2024-03-23T08:34:01;8.50;99.90
5554;DHT22;2800;49.528;8.666;2024-03-23T08:36:27;8.50;99.90
5554;DHT22;2800;49.528;8.666;2024-03-23T08:38:52;8.60;99.90
5554;DHT22;2800;49.528;8.666;2024-03-23T08:41:19;8.70;99.90
5554;DHT22;2800;49.528;8.666;2024-03-23T08:43:44;8.90;99.90
5554;DHT22;2800;49.528;8.666;2024-03-23T08:46:14;9.40;99.90
5554;DHT22;2800;49.528;8.666;2024-03-23T08:48:45;9.70;99.90
5554;DHT22;2800;49.528;8.666;2024-03-23T08:51:13;9.80;99.90
5554;DHT22;2800;49.528;8.666;2024-03-23T08:53:39;10.10;99.90
5554;DHT22;2800;49.528;8.666;2024-03-23T08:56:06;10.30;99.90
5554;DHT22;2800;49.528;8.666;2024-03-23T08:58:33;10.70;99.90
5554;DHT22;2800;49.528;8.666;2024-03-23T09:01:10;11.20;99.90
5554;DHT22;2800;49.528;8.666;2024-03-23T09:03:36;10.90;99.90
5554;DHT22;2800;49.528;8.666;2024-03-23T09:06:09;10.70;99.90
5554;DHT22;2800;49.528;8.666;2024-03-23T09:08:35;10.60;99.90
5554;DHT22;2800;49.528;8.666;2024-03-23T09:11:05;10.20;99.90
5554;DHT22;2800;49.528;8.666;2024-03-23T09:13:35;10.10;99.90
5554;DHT22;2800;49.528;8.666;2024-03-23T09:16:01;10.00;99.90
5554;DHT22;2800;49.528;8.666;2024-03-23T09:18:27;10.00;99.90
5554;DHT22;2800;49.528;8.666;2024-03-23T09:20:52;10.00;99.90
5554;DHT22;2800;49.528;8.666;2024-03-23T09:23:23;9.90;99.90
5554;DHT22;2800;49.528;8.666;2024-03-23T09:25:48;9.90;99.90
5554;DHT22;2800;49.528;8.666;2024-03-23T09:28:14;9.80;99.90
5554;DHT22;2800;49.528;8.666;2024-03-23T09:30:39;9.80;99.90
5554;DHT22;2800;49.528;8.666;2024-03-23T09:33:09;9.80;99.90
5554;DHT22;2800;49.528;8.666;2024-03-23T09:35:42;9.60;99.90
5554;DHT22;2800;49.528;8.666;2024-03-23T09:38:08;9.70;99.90
5554;DHT22;2800;49.528;8.666;2024-03-23T09:40:35;9.60;99.90
5554;DHT22;2800;49.528;8.666;2024-03-23T09:43:01;9.80;99.90
5554;DHT22;2800;49.528;8.666;2024-03-23T09:45:29;9.90;99.90
5554;DHT22;2800;49.528;8.666;2024-03-23T09:47:55;10.20;99.90
5554;DHT22;2800;49.528;8.666;2024-03-23T09:50:22;10.00;99.90
5554;DHT22;2800;49.528;8.666;2024-03-23T09:52:48;11.50;99.90
5554;DHT22;2800;49.528;8.666;2024-03-23T09:55:13;9.80;99.90
5554;DHT22;2800;49.528;8.666;2024-03-23T09:57:40;9.90;99.90
5554;DHT22;2800;49.528;8.666;2024-03-23T10:00:06;9.60;99.90
5554;DHT22;2800;49.528;8.666;2024-03-23T10:02:31;9.60;99.90
5554;DHT22;2800;49.528;8.666;2024-03-23T10:04:58;9.90;99.90
5554;DHT22;2800;49.528;8.666;2024-03-23T10:07:23;9.70;99.90
5554;DHT22;2800;49.528;8.666;2024-03-23T10:09:49;9.90;99.90
5554;DHT22;2800;49.528;8.666;2024-03-23T10:12:18;10.00;99.90
5554;DHT22;2800;49.528;8.666;2024-03-23T10:14:44;9.90;99.90
5554;DHT22;2800;49.528;8.666;2024-03-23T10:17:16;9.90;99.90
5554;DHT22;2800;49.528;8.666;2024-03-23T10:19:48;10.30;99.90
5554;DHT22;2800;49.528;8.666;2024-03-23T10:22:18;10.30;99.90
5554;DHT22;2800;49.528;8.666;2024-03-23T10:24:44;10.20;99.90
5554;DHT22;2800;49.528;8.666;2024-03-23T10:27:13;10.00;99.90
5554;DHT22;2800;49.528;8.666;2024-03-23T10:29:40;10.20;99.90
5554;DHT22;2800;49.528;8.666;2024-03-23T10:32:12;10.30;99.90
5554;DHT22;2800;49.528;8.666;2024-03-23T10:34:38;10.20;99.90
5554;DHT22;2800;49.528;8.666;2024-03-23T10:37:05;10.20;99.90
5554;DHT22;2800;49.528;8.666;2024-03-23T10:39:35;10.20;99.90
5554;DHT22;2800;49.528;8.666;2024-03-23T10:42:08;10.20;99.90
5554;DHT22;2800;49.528;8.666;2024-03-23T10:44:35;10.10;99.80
5554;DHT22;2800;49.528;8.666;2024-03-23T10:47:02;10.00;99.90
5554;DHT22;2800;49.528;8.666;2024-03-23T10:49:32;10.00;99.90
5554;DHT22;2800;49.528;8.666;2024-03-23T10:52:05;10.10;99.50
5554;DHT22;2800;49.528;8.666;2024-03-23T10:54:32;10.00;99.10
5554;DHT22;2800;49.528;8.666;2024-03-23T10:57:08;9.80;99.10
5554;DHT22;2800;49.528;8.666;2024-03-23T10:59:37;10.00;99.00
5554;DHT22;2800;49.528;8.666;2024-03-23T11:02:03;10.10;99.10
5554;DHT22;2800;49.528;8.666;2024-03-23T11:04:30;10.20;99.20
5554;DHT22;2800;49.528;8.666;2024-03-23T11:06:56;10.20;99.30
5554;DHT22;2800;49.528;8.666;2024-03-23T11:09:43;10.20;98.90
5554;DHT22;2800;49.528;8.666;2024-03-23T11:14:50;11.40;98.40
5554;DHT22;2800;49.528;8.666;2024-03-23T11:17:20;11.80;97.30
5554;DHT22;2800;49.528;8.666;2024-03-23T11:20:06;12.40;96.30
5554;DHT22;2800;49.528;8.666;2024-03-23T11:25:24;13.10;94.40
5554;DHT22;2800;49.528;8.666;2024-03-23T11:27:53;12.90;93.90
5554;DHT22;2800;49.528;8.666;2024-03-23T11:30:26;12.50;94.40
5554;DHT22;2800;49.528;8.666;2024-03-23T11:32:54;11.80;93.20
5554;DHT22;2800;49.528;8.666;2024-03-23T11:35:30;11.80;94.40
5554;DHT22;2800;49.528;8.666;2024-03-23T11:40:34;10.60;99.90
5554;DHT22;2800;49.528;8.666;2024-03-23T11:43:05;10.00;99.90
5554;DHT22;2800;49.528;8.666;2024-03-23T11:45:36;9.70;99.90
5554;DHT22;2800;49.528;8.666;2024-03-23T11:48:09;9.40;99.90
5554;DHT22;2800;49.528;8.666;2024-03-23T11:50:38;9.10;99.90
5554;DHT22;2800;49.528;8.666;2024-03-23T11:53:17;8.90;99.90
5554;DHT22;2800;49.528;8.666;2024-03-23T11:55:56;8.70;99.90
5554;DHT22;2800;49.528;8.666;2024-03-23T11:58:23;8.50;99.90
5554;DHT22;2800;49.528;8.666;2024-03-23T12:01:10;8.50;99.90
5554;DHT22;2800;49.528;8.666;2024-03-23T12:03:35;8.40;99.90
5554;DHT22;2800;49.528;8.666;2024-03-23T12:06:03;8.30;99.90
5554;DHT22;2800;49.528;8.666;2024-03-23T12:08:30;8.20;99.90
5554;DHT22;2800;49.528;8.666;2024-03-23T12:13:32;7.80;99.90
5554;DHT22;2800;49.528;8.666;2024-03-23T12:16:16;7.80;99.90
5554;DHT22;2800;49.528;8.666;2024-03-23T12:18:43;8.10;99.90
5554;DHT22;2800;49.528;8.666;2024-03-23T12:21:09;8.30;99.90
5554;DHT22;2800;49.528;8.666;2024-03-23T12:23:35;8.50;99.90
5554;DHT22;2800;49.528;8.666;2024-03-23T12:26:01;8.50;99.90
5554;DHT22;2800;49.528;8.666;2024-03-23T12:28:27;8.80;99.90
5554;DHT22;2800;49.528;8.666;2024-03-23T12:30:53;8.80;99.90
5554;DHT22;2800;49.528;8.666;2024-03-23T12:33:22;9.20;99.90
5554;DHT22;2800;49.528;8.666;2024-03-23T12:35:49;8.90;99.90
5554;DHT22;2800;49.528;8.666;2024-03-23T12:38:15;8.60;99.90
5554;DHT22;2800;49.528;8.666;2024-03-23T12:40:40;8.50;99.90
5554;DHT22;2800;49.528;8.666;2024-03-23T12:43:06;8.00;99.90
5554;DHT22;2800;49.528;8.666;2024-03-23T12:45:33;7.90;99.90
5554;DHT22;2800;49.528;8.666;2024-03-23T12:47:58;7.80;99.90
5554;DHT22;2800;49.528;8.666;2024-03-23T12:50:24;7.90;99.90
5554;DHT22;2800;49.528;8.666;2024-03-23T12:52:49;8.00;99.90
5554;DHT22;2800;49.528;8.666;2024-03-23T12:55:15;8.10;99.90
5554;DHT22;2800;49.528;8.666;2024-03-23T12:57:40;8.30;99.90
5554;DHT22;2800;49.528;8.666;2024-03-23T13:00:06;8.50;99.90
5554;DHT22;2800;49.528;8.666;2024-03-23T13:02:34;8.80;99.90
5554;DHT22;2800;49.528;8.666;2024-03-23T13:05:00;9.20;99.90
5554;DHT22;2800;49.528;8.666;2024-03-23T13:07:25;9.20;99.90
5554;DHT22;2800;49.528;8.666;2024-03-23T13:09:51;8.80;99.90
5554;DHT22;2800;49.528;8.666;2024-03-23T13:12:18;8.60;99.90
5554;DHT22;2800;49.528;8.666;2024-03-23T13:14:44;7.90;99.90
5554;DHT22;2800;49.528;8.666;2024-03-23T13:17:10;7.60;99.90
5554;DHT22;2800;49.528;8.666;2024-03-23T13:19:36;7.10;99.90
5554;DHT22;2800;49.528;8.666;2024-03-23T13:22:01;6.90;99.90
5554;DHT22;2800;49.528;8.666;2024-03-23T13:24:30;6.60;99.90
5554;DHT22;2800;49.528;8.666;2024-03-23T13:26:57;6.40;99.90
5554;DHT22;2800;49.528;8.666;2024-03-23T13:29:23;6.30;99.90
5554;DHT22;2800;49.528;8.666;2024-03-23T13:31:50;6.30;99.90
5554;DHT22;2800;49.528;8.666;2024-03-23T13:34:16;6.40;99.90
5554;DHT22;2800;49.528;8.666;2024-03-23T13:36:45;6.70;99.90
5554;DHT22;2800;49.528;8.666;2024-03-23T13:39:12;6.70;99.90
5554;DHT22;2800;49.528;8.666;2024-03-23T13:41:44;6.90;99.90
5554;DHT22;2800;49.528;8.666;2024-03-23T13:44:11;6.90;99.90
5554;DHT22;2800;49.528;8.666;2024-03-23T13:46:38;7.20;99.90
5554;DHT22;2800;49.528;8.666;2024-03-23T13:49:04;7.40;99.90
5554;DHT22;2800;49.528;8.666;2024-03-23T13:51:30;7.70;99.90
5554;DHT22;2800;49.528;8.666;2024-03-23T13:53:56;8.00;99.90
5554;DHT22;2800;49.528;8.666;2024-03-23T13:56:22;8.50;99.90
5554;DHT22;2800;49.528;8.666;2024-03-23T13:58:48;8.50;99.90
5554;DHT22;2800;49.528;8.666;2024-03-23T14:01:15;8.00;99.90
5554;DHT22;2800;49.528;8.666;2024-03-23T14:03:41;7.90;99.90
5554;DHT22;2800;49.528;8.666;2024-03-23T14:06:07;8.00;99.90
5554;DHT22;2800;49.528;8.666;2024-03-23T14:08:34;8.40;99.90
5554;DHT22;2800;49.528;8.666;2024-03-23T14:11:04;9.30;99.90
5554;DHT22;2800;49.528;8.666;2024-03-23T14:13:30;11.00;99.90
5554;DHT22;2800;49.528;8.666;2024-03-23T14:15:56;10.60;99.90
5554;DHT22;2800;49.528;8.666;2024-03-23T14:18:22;9.50;99.90
5554;DHT22;2800;49.528;8.666;2024-03-23T14:20:51;9.00;99.90
5554;DHT22;2800;49.528;8.666;2024-03-23T14:23:17;8.60;99.90
5554;DHT22;2800;49.528;8.666;2024-03-23T14:25:43;8.50;99.90
5554;DHT22;2800;49.528;8.666;2024-03-23T14:28:08;8.20;99.90
5554;DHT22;2800;49.528;8.666;2024-03-23T14:30:41;8.30;99.90
5554;DHT22;2800;49.528;8.666;2024-03-23T14:33:07;8.20;99.90
5554;DHT22;2800;49.528;8.666;2024-03-23T14:35:33;8.00;99.90
5554;DHT22;2800;49.528;8.666;2024-03-23T14:37:58;8.00;99.90
5554;DHT22;2800;49.528;8.666;2024-03-23T14:40:24;7.90;99.90
5554;DHT22;2800;49.528;8.666;2024-03-23T14:42:53;8.00;99.90
5554;DHT22;2800;49.528;8.666;2024-03-23T14:45:19;7.90;99.90
5554;DHT22;2800;49.528;8.666;2024-03-23T14:47:44;7.90;99.90
5554;DHT22;2800;49.528;8.666;2024-03-23T14:50:10;7.70;99.90
5554;DHT22;2800;49.528;8.666;2024-03-23T14:52:39;7.60;99.90
5554;DHT22;2800;49.528;8.666;2024-03-23T14:55:05;7.80;99.90
5554;DHT22;2800;49.528;8.666;2024-03-23T14:57:30;8.20;99.90
5554;DHT22;2800;49.528;8.666;2024-03-23T14:59:56;8.50;99.90
5554;DHT22;2800;49.528;8.666;2024-03-23T15:02:21;8.20;99.90
5554;DHT22;2800;49.528;8.666;2024-03-23T15:04:47;9.30;99.90
5554;DHT22;2800;49.528;8.666;2024-03-23T15:07:12;9.00;99.90
5554;DHT22;2800;49.528;8.666;2024-03-23T15:09:38;8.80;99.90
5554;DHT22;2800;49.528;8.666;2024-03-23T15:12:04;8.70;99.90
5554;DHT22;2800;49.528;8.666;2024-03-23T15:14:29;9.00;99.90
5554;DHT22;2800;49.528;8.666;2024-03-23T15:16:55;8.70;99.90
5554;DHT22;2800;49.528;8.666;2024-03-23T15:19:20;8.60;99.90
5554;DHT22;2800;49.528;8.666;2024-03-23T15:21:46;8.50;99.90
5554;DHT22;2800;49.528;8.666;2024-03-23T15:24:11;8.40;99.90
5554;DHT22;2800;49.528;8.666;2024-03-23T15:26:37;8.20;99.90
5554;DHT22;2800;49.528;8.666;2024-03-23T15:29:03;8.30;99.90
5554;DHT22;2800;49.528;8.666;2024-03-23T15:31:35;8.30;99.90
5554;DHT22;2800;49.528;8.666;2024-03-23T15:34:01;8.50;99.90
5554;DHT22;2800;49.528;8.666;2024-03-23T15:36:26;8.40;99.90
5554;DHT22;2800;49.528;8.666;2024-03-23T15:38:52;8.40;99.90
5554;DHT22;2800;49.528;8.666;2024-03-23T15:41:20;8.40;99.90
5554;DHT22;2800;49.528;8.666;2024-03-23T15:43:48;7.50;99.90
5554;DHT22;2800;49.528;8.666;2024-03-23T15:46:13;8.40;99.90
5554;DHT22;2800;49.528;8.666;2024-03-23T15:48:40;8.30;99.90
5554;DHT22;2800;49.528;8.666;2024-03-23T15:51:11;8.30;99.90
5554;DHT22;2800;49.528;8.666;2024-03-23T15:53:36;8.20;99.90
5554;DHT22;2800;49.528;8.666;2024-03-23T15:56:03;8.20;99.90
5554;DHT22;2800;49.528;8.666;2024-03-23T15:58:30;8.20;99.90
5554;DHT22;2800;49.528;8.666;2024-03-23T16:00:57;8.10;99.90
5554;DHT22;2800;49.528;8.666;2024-03-23T16:03:23;8.00;99.90
5554;DHT22;2800;49.528;8.666;2024-03-23T16:05:56;7.90;99.90
5554;DHT22;2800;49.528;8.666;2024-03-23T16:08:23;7.90;99.90
5554;DHT22;2800;49.528;8.666;2024-03-23T16:10:49;8.00;99.90
5554;DHT22;2800;49.528;8.666;2024-03-23T16:13:15;8.80;99.90
5554;DHT22;2800;49.528;8.666;2024-03-23T16:15:40;8.70;99.90
5554;DHT22;2800;49.528;8.666;2024-03-23T16:18:06;9.80;99.90
5554;DHT22;2800;49.528;8.666;2024-03-23T16:20:32;9.20;99.90
5554;DHT22;2800;49.528;8.666;2024-03-23T16:22:59;8.50;99.90
5554;DHT22;2800;49.528;8.666;2024-03-23T16:25:25;7.50;99.90
5554;DHT22;2800;49.528;8.666;2024-03-23T16:27:50;7.50;99.90
5554;DHT22;2800;49.528;8.666;2024-03-23T16:30:16;7.20;99.90
5554;DHT22;2800;49.528;8.666;2024-03-23T16:32:42;6.80;99.90
5554;DHT22;2800;49.528;8.666;2024-03-23T16:35:07;6.90;99.90
5554;DHT22;2800;49.528;8.666;2024-03-23T16:37:37;7.00;99.90
5554;DHT22;2800;49.528;8.666;2024-03-23T16:40:02;6.80;99.90
5554;DHT22;2800;49.528;8.666;2024-03-23T16:42:28;6.80;99.90
5554;DHT22;2800;49.528;8.666;2024-03-23T16:44:54;6.80;99.90
5554;DHT22;2800;49.528;8.666;2024-03-23T16:47:19;6.80;99.90
5554;DHT22;2800;49.528;8.666;2024-03-23T16:49:45;6.70;99.90
5554;DHT22;2800;49.528;8.666;2024-03-23T16:52:10;6.60;99.90
5554;DHT22;2800;49.528;8.666;2024-03-23T16:54:36;6.50;99.90
5554;DHT22;2800;49.528;8.666;2024-03-23T16:57:01;6.20;99.90
5554;DHT22;2800;49.528;8.666;2024-03-23T16:59:28;6.10;99.90
5554;DHT22;2800;49.528;8.666;2024-03-23T17:01:53;6.10;99.90
5554;DHT22;2800;49.528;8.666;2024-03-23T17:04:21;6.10;99.90
5554;DHT22;2800;49.528;8.666;2024-03-23T17:06:48;6.10;99.90
5554;DHT22;2800;49.528;8.666;2024-03-23T17:09:13;6.10;99.90
5554;DHT22;2800;49.528;8.666;2024-03-23T17:11:39;6.20;99.90
5554;DHT22;2800;49.528;8.666;2024-03-23T17:14:07;6.30;99.90